Time;durP1;ratioP1;P1;durP2;ratioP2;P2;SDS_P1;SDS_P2;PMS_P1;PMS_P2;Temp;Humidity;BMP_temperature;BMP_pressure;BME280_temperature;BME280_humidity;BME280_pressure;Samples;Min_cycle;Max_cycle;Signal;HPM_P1;HPM_P2
2023/12/06 00:00:22;;;;;;;28.73;9.73;;;1.80;99.90;;;;;;5069665;28;20021;-58
2023/12/06 00:02:49;;;;;;;35.77;11.17;;;1.90;99.90;;;;;;5070036;28;20465;-58
2023/12/06 00:05:15;;;;;;;34.67;11.00;;;1.80;99.90;;;;;;5070433;28;20029;-57
2023/12/06 00:07:41;;;;;;;33.13;9.70;;;1.90;99.90;;;;;;5070085;28;20082;-55
2023/12/06 00:10:07;;;;;;;33.03;10.80;;;1.80;99.90;;;;;;5070078;28;20543;-57
2023/12/06 00:12:32;;;;;;;32.03;9.30;;;1.80;99.90;;;;;;5078493;28;20578;-57
2023/12/06 00:14:58;;;;;;;36.27;10.30;;;1.80;99.90;;;;;;5070001;28;20024;-57
2023/12/06 00:17:24;;;;;;;32.93;10.37;;;1.80;99.90;;;;;;5069965;28;20109;-57
2023/12/06 00:19:49;;;;;;;30.63;9.97;;;1.80;99.90;;;;;;5070162;28;20068;-56
2023/12/06 00:22:15;;;;;;;26.93;8.40;;;1.80;99.90;;;;;;5069852;28;20056;-58
2023/12/06 00:24:40;;;;;;;29.80;9.83;;;1.80;99.90;;;;;;5078155;28;20028;-58
2023/12/06 00:27:06;;;;;;;31.30;9.70;;;1.90;99.90;;;;;;5069610;28;20029;-58
2023/12/06 00:29:32;;;;;;;34.73;10.10;;;1.90;99.90;;;;;;5068190;28;20242;-57
2023/12/06 00:31:57;;;;;;;32.23;9.97;;;1.90;99.90;;;;;;5078109;28;20027;-57
2023/12/06 00:34:23;;;;;;;31.07;9.97;;;1.90;99.90;;;;;;5069969;28;20462;-57
2023/12/06 00:36:48;;;;;;;27.87;10.93;;;1.80;99.90;;;;;;5069906;28;20056;-55
2023/12/06 00:39:14;;;;;;;38.10;10.03;;;1.80;99.90;;;;;;5069846;28;20032;-57
2023/12/06 00:41:41;;;;;;;38.97;10.90;;;1.80;99.90;;;;;;5077894;28;20528;-56
2023/12/06 00:44:07;;;;;;;49.20;12.97;;;1.80;99.90;;;;;;5070084;28;20025;-56
2023/12/06 00:46:36;;;;;;;31.10;9.63;;;1.80;99.90;;;;;;5069942;28;20032;-56
2023/12/06 00:49:03;;;;;;;30.20;9.18;;;1.70;99.90;;;;;;5069990;28;20389;-54
2023/12/06 00:51:29;;;;;;;33.27;10.33;;;1.80;99.90;;;;;;5070178;28;20098;-55
2023/12/06 00:53:54;;;;;;;42.93;11.30;;;1.70;99.90;;;;;;5078464;28;20049;-57
2023/12/06 00:56:20;;;;;;;32.47;9.60;;;1.70;99.90;;;;;;5069534;28;20052;-56
2023/12/06 00:58:45;;;;;;;40.70;12.67;;;1.70;99.90;;;;;;5069610;28;20487;-57
2023/12/06 01:01:12;;;;;;;33.83;9.83;;;1.70;99.90;;;;;;5077964;28;20025;-57
2023/12/06 01:03:39;;;;;;;35.13;10.83;;;1.60;99.90;;;;;;5069842;28;20035;-57
2023/12/06 01:06:05;;;;;;;36.90;10.03;;;1.60;99.90;;;;;;5070892;28;20024;-57
2023/12/06 01:08:31;;;;;;;34.83;9.63;;;1.60;99.90;;;;;;5073571;28;20089;-57
2023/12/06 01:10:56;;;;;;;30.80;10.50;;;1.60;99.90;;;;;;5073069;28;20021;-54
2023/12/06 01:13:22;;;;;;;38.93;12.07;;;1.60;99.90;;;;;;5073291;28;20354;-52
2023/12/06 01:15:48;;;;;;;45.37;13.03;;;1.60;99.90;;;;;;5073820;28;20024;-53
2023/12/06 01:18:13;;;;;;;50.47;14.57;;;1.60;99.90;;;;;;5081958;28;20063;-54
2023/12/06 01:20:39;;;;;;;50.00;13.47;;;1.60;99.90;;;;;;5073503;28;20033;-56
2023/12/06 01:23:06;;;;;;;49.43;14.07;;;1.60;99.90;;;;;;5073219;28;20067;-55
2023/12/06 01:25:33;;;;;;;37.33;11.63;;;1.50;99.90;;;;;;5074031;28;20089;-53
2023/12/06 01:27:59;;;;;;;55.33;15.27;;;1.60;99.90;;;;;;5072237;28;20029;-53
2023/12/06 01:30:25;;;;;;;70.07;15.23;;;1.60;99.90;;;;;;5073905;28;20025;-53
2023/12/06 01:32:50;;;;;;;44.00;13.80;;;1.60;99.90;;;;;;5073826;28;20035;-53
2023/12/06 01:35:16;;;;;;;52.00;14.83;;;1.60;99.90;;;;;;5073510;28;20109;-56
2023/12/06 01:37:42;;;;;;;57.67;16.97;;;1.60;99.90;;;;;;5072957;28;20040;-53
2023/12/06 01:40:08;;;;;;;58.83;16.67;;;1.60;99.90;;;;;;5073462;28;20079;-56
2023/12/06 01:42:35;;;;;;;55.43;15.70;;;1.60;99.90;;;;;;5072481;28;20111;-57
2023/12/06 01:45:00;;;;;;;61.17;17.83;;;1.50;99.90;;;;;;5072670;28;20377;-54
2023/12/06 01:47:27;;;;;;;57.30;17.37;;;1.50;99.90;;;;;;5072487;28;20033;-57
2023/12/06 01:49:54;;;;;;;60.10;15.40;;;1.50;99.90;;;;;;5072453;28;20531;-57
2023/12/06 01:52:21;;;;;;;56.00;16.67;;;1.60;99.90;;;;;;5072220;28;20028;-57
2023/12/06 01:54:47;;;;;;;59.53;17.53;;;1.50;99.90;;;;;;5072452;28;20107;-57
2023/12/06 01:57:13;;;;;;;56.17;18.07;;;1.50;99.90;;;;;;5072662;28;20035;-57
2023/12/06 01:59:39;;;;;;;52.33;16.40;;;1.40;99.90;;;;;;5072688;28;20121;-57
2023/12/06 02:02:05;;;;;;;59.57;17.90;;;1.50;99.90;;;;;;5072349;28;20050;-57
2023/12/06 02:04:33;;;;;;;71.47;17.73;;;1.60;99.90;;;;;;5079770;28;20020;-55
2023/12/06 02:06:59;;;;;;;63.83;17.30;;;1.50;99.90;;;;;;5073432;28;20488;-56
2023/12/06 02:09:26;;;;;;;63.77;18.37;;;1.40;99.90;;;;;;5073229;28;20035;-57
2023/12/06 02:11:52;;;;;;;66.60;17.63;;;1.40;99.90;;;;;;5072112;28;20485;-56
2023/12/06 02:14:18;;;;;;;70.67;18.67;;;1.40;99.90;;;;;;5080475;28;20056;-56
2023/12/06 02:16:44;;;;;;;69.57;19.60;;;1.30;99.90;;;;;;5071346;28;20113;-57
2023/12/06 02:19:16;;;;;;;62.70;18.03;;;1.30;99.90;;;;;;5071296;28;20021;-56
2023/12/06 02:21:43;;;;;;;61.07;18.87;;;1.30;99.90;;;;;;5071653;28;20083;-57
2023/12/06 02:24:11;;;;;;;67.53;16.47;;;1.30;99.90;;;;;;5072030;28;20473;-56
2023/12/06 02:26:36;;;;;;;62.20;16.80;;;1.30;99.90;;;;;;5071621;28;20045;-54
2023/12/06 02:29:02;;;;;;;65.33;17.53;;;1.30;99.90;;;;;;5071745;28;20025;-53
2023/12/06 02:31:28;;;;;;;56.77;16.80;;;1.30;99.90;;;;;;5071601;28;20108;-56
2023/12/06 02:33:54;;;;;;;60.43;18.20;;;1.40;99.90;;;;;;5071732;28;20024;-54
2023/12/06 02:36:22;;;;;;;58.60;17.13;;;1.40;99.90;;;;;;5071799;28;20329;-56
2023/12/06 02:38:48;;;;;;;54.13;17.33;;;1.30;99.90;;;;;;5080826;28;20051;-56
2023/12/06 02:41:18;;;;;;;54.50;16.10;;;1.30;99.90;;;;;;5081264;28;20658;-56
2023/12/06 02:43:46;;;;;;;54.57;17.73;;;1.40;99.90;;;;;;5074693;28;20494;-55
2023/12/06 02:46:12;;;;;;;59.00;18.43;;;1.40;99.90;;;;;;5071712;28;20024;-57
2023/12/06 02:48:38;;;;;;;63.03;18.13;;;1.30;99.90;;;;;;5071311;28;20097;-57
2023/12/06 02:51:05;;;;;;;53.37;16.40;;;1.30;99.90;;;;;;5071137;28;20024;-56
2023/12/06 02:53:30;;;;;;;51.33;16.93;;;1.30;99.90;;;;;;5071361;28;20071;-56
2023/12/06 02:55:56;;;;;;;52.27;18.00;;;1.30;99.90;;;;;;5069812;28;20064;-53
2023/12/06 02:58:21;;;;;;;55.90;18.77;;;1.30;99.90;;;;;;5069894;28;20032;-56
2023/12/06 03:00:47;;;;;;;54.47;15.63;;;1.30;99.90;;;;;;5071275;28;20419;-55
2023/12/06 03:03:13;;;;;;;52.70;15.03;;;1.20;99.90;;;;;;5075004;28;20028;-53
2023/12/06 03:05:38;;;;;;;47.73;16.13;;;1.20;99.90;;;;;;5075248;28;20090;-55
2023/12/06 03:08:04;;;;;;;51.23;17.03;;;1.20;99.90;;;;;;5071054;28;20043;-55
2023/12/06 03:10:29;;;;;;;53.37;17.17;;;1.20;99.90;;;;;;5071056;28;20021;-54
2023/12/06 03:12:55;;;;;;;59.80;17.60;;;1.20;99.90;;;;;;5071094;28;20056;-55
2023/12/06 03:15:20;;;;;;;56.07;16.83;;;1.20;99.90;;;;;;5071147;28;20097;-56
2023/12/06 03:17:46;;;;;;;55.67;16.37;;;1.10;99.90;;;;;;5079026;28;20020;-54
2023/12/06 03:20:12;;;;;;;56.07;17.73;;;1.10;99.90;;;;;;5070858;28;20032;-55
2023/12/06 03:22:38;;;;;;;53.57;17.00;;;1.20;99.90;;;;;;5069121;28;20024;-55
2023/12/06 03:25:05;;;;;;;51.70;15.40;;;1.20;99.90;;;;;;5070566;28;20420;-53
2023/12/06 03:27:30;;;;;;;41.93;14.83;;;1.20;99.90;;;;;;5070695;28;20037;-56
2023/12/06 03:29:56;;;;;;;50.43;16.10;;;1.20;99.90;;;;;;5070213;28;20143;-54
2023/12/06 03:32:22;;;;;;;51.07;15.53;;;1.20;99.90;;;;;;5075542;28;20417;-54
2023/12/06 03:34:47;;;;;;;45.47;14.67;;;1.20;99.90;;;;;;5073526;28;20500;-55
2023/12/06 03:37:13;;;;;;;48.63;16.27;;;1.20;99.90;;;;;;5074315;28;20032;-57
2023/12/06 03:39:38;;;;;;;42.13;14.57;;;1.20;99.90;;;;;;5074985;28;20090;-57
2023/12/06 03:42:04;;;;;;;49.37;15.73;;;1.20;99.90;;;;;;5082220;28;20503;-54
2023/12/06 03:44:30;;;;;;;44.07;15.40;;;1.20;99.90;;;;;;5076811;28;20070;-55
2023/12/06 03:46:55;;;;;;;47.97;16.37;;;1.20;99.90;;;;;;5073350;28;20035;-57
2023/12/06 03:49:21;;;;;;;43.40;14.97;;;1.30;99.90;;;;;;5070415;28;20089;-57
2023/12/06 03:51:46;;;;;;;45.90;16.43;;;1.30;99.90;;;;;;5078896;28;20067;-55
2023/12/06 03:54:12;;;;;;;43.20;16.17;;;1.20;99.90;;;;;;5070445;28;20024;-55
2023/12/06 03:56:38;;;;;;;43.47;15.20;;;1.20;99.90;;;;;;5070181;28;20338;-55
2023/12/06 03:59:04;;;;;;;42.67;15.83;;;1.30;99.90;;;;;;5070218;28;20037;-53
2023/12/06 04:01:30;;;;;;;47.97;15.73;;;1.30;99.90;;;;;;5070359;28;20028;-57
2023/12/06 04:03:55;;;;;;;42.33;14.87;;;1.30;99.90;;;;;;5071194;28;20055;-57
2023/12/06 04:06:21;;;;;;;42.40;15.77;;;1.40;99.90;;;;;;5077437;28;20214;-56
2023/12/06 04:08:46;;;;;;;39.47;15.23;;;1.40;99.90;;;;;;5070511;28;20043;-57
2023/12/06 04:11:12;;;;;;;46.03;15.57;;;1.40;99.90;;;;;;5078539;28;20127;-56
2023/12/06 04:13:37;;;;;;;44.70;14.53;;;1.40;99.90;;;;;;5069027;28;20035;-57
2023/12/06 04:16:04;;;;;;;40.47;15.50;;;1.50;99.90;;;;;;5072369;28;20025;-56
2023/12/06 04:18:30;;;;;;;39.43;15.03;;;1.40;99.90;;;;;;5087328;28;20073;-56
2023/12/06 04:20:55;;;;;;;45.97;16.27;;;1.50;99.90;;;;;;5090266;28;20036;-57
2023/12/06 04:23:21;;;;;;;37.73;14.00;;;1.50;99.90;;;;;;5090234;28;20024;-57
2023/12/06 04:25:47;;;;;;;39.30;14.77;;;1.40;99.90;;;;;;5090173;28;20069;-57
2023/12/06 04:28:13;;;;;;;47.80;16.30;;;1.40;99.90;;;;;;5090152;28;20520;-56
2023/12/06 04:30:39;;;;;;;45.17;14.73;;;1.50;99.90;;;;;;5081843;28;20125;-58
2023/12/06 04:33:04;;;;;;;45.07;15.37;;;1.40;99.90;;;;;;5088784;28;20380;-55
2023/12/06 04:35:30;;;;;;;48.93;16.37;;;1.50;99.90;;;;;;5084883;28;20030;-57
2023/12/06 04:37:55;;;;;;;34.17;13.33;;;1.40;99.90;;;;;;5087076;28;20463;-58
2023/12/06 04:40:21;;;;;;;38.30;13.63;;;1.40;99.90;;;;;;5086279;28;20078;-56
2023/12/06 04:42:47;;;;;;;42.07;14.73;;;1.40;99.90;;;;;;5089935;28;20160;-57
2023/12/06 04:45:12;;;;;;;39.60;14.57;;;1.50;99.90;;;;;;5094272;28;20047;-55
2023/12/06 04:47:38;;;;;;;37.53;14.97;;;1.50;99.90;;;;;;5093926;28;20031;-57
2023/12/06 04:50:05;;;;;;;48.10;15.33;;;1.50;99.90;;;;;;5093922;28;20534;-56
2023/12/06 04:52:31;;;;;;;37.07;14.83;;;1.50;99.90;;;;;;5094129;28;20383;-57
2023/12/06 04:54:57;;;;;;;43.63;16.07;;;1.60;99.90;;;;;;5094146;28;20034;-55
2023/12/06 04:57:23;;;;;;;38.17;13.83;;;1.60;99.90;;;;;;5094040;28;20036;-57
2023/12/06 04:59:49;;;;;;;37.77;13.37;;;1.70;99.90;;;;;;5093944;28;20492;-57
2023/12/06 05:02:14;;;;;;;35.53;12.70;;;1.70;99.90;;;;;;5093715;28;20024;-56
2023/12/06 05:04:40;;;;;;;42.93;14.23;;;1.70;99.90;;;;;;5085438;28;20167;-58
2023/12/06 05:07:05;;;;;;;40.80;14.33;;;1.70;99.90;;;;;;5075560;28;20046;-55
2023/12/06 05:09:31;;;;;;;39.83;13.30;;;1.70;99.90;;;;;;5073557;28;20303;-57
2023/12/06 05:11:56;;;;;;;40.10;14.37;;;1.70;99.90;;;;;;5073531;28;20050;-54
2023/12/06 05:14:22;;;;;;;43.27;13.83;;;1.80;99.90;;;;;;5073697;28;20060;-57
2023/12/06 05:16:48;;;;;;;35.60;13.00;;;1.80;99.90;;;;;;5073329;28;20036;-56
2023/12/06 05:19:13;;;;;;;37.50;14.03;;;1.80;99.90;;;;;;5073775;28;20376;-56
2023/12/06 05:21:39;;;;;;;38.57;15.37;;;1.80;99.90;;;;;;5074670;28;20112;-54
2023/12/06 05:24:04;;;;;;;40.80;15.00;;;1.90;99.90;;;;;;5074081;28;20032;-52
2023/12/06 05:26:30;;;;;;;33.43;13.43;;;2.00;99.90;;;;;;5074719;28;20043;-56
2023/12/06 05:28:58;;;;;;;37.93;13.27;;;2.00;99.90;;;;;;5073340;28;20400;-56
2023/12/06 05:31:23;;;;;;;39.33;14.33;;;2.00;99.90;;;;;;5075013;28;20107;-57
2023/12/06 05:33:49;;;;;;;45.43;14.00;;;2.00;99.90;;;;;;5073492;28;20540;-57
2023/12/06 05:36:15;;;;;;;43.90;14.20;;;2.00;99.90;;;;;;5074550;28;20033;-57
2023/12/06 05:38:40;;;;;;;42.23;14.23;;;2.10;99.90;;;;;;5074815;28;20480;-56
2023/12/06 05:41:06;;;;;;;37.20;13.10;;;2.10;99.90;;;;;;5074619;28;20040;-53
2023/12/06 05:43:32;;;;;;;39.40;13.73;;;2.10;99.90;;;;;;5074466;28;20029;-56
2023/12/06 05:45:58;;;;;;;43.57;14.23;;;2.20;99.90;;;;;;5073852;28;20029;-57
2023/12/06 05:48:23;;;;;;;44.20;15.50;;;2.20;99.90;;;;;;5074530;28;20051;-57
2023/12/06 05:50:49;;;;;;;38.10;13.47;;;2.30;99.90;;;;;;5074297;28;20370;-53
2023/12/06 05:53:14;;;;;;;38.83;13.33;;;2.30;99.90;;;;;;5073999;28;20051;-55
2023/12/06 05:55:40;;;;;;;36.03;12.90;;;2.30;99.90;;;;;;5074037;28;20473;-57
2023/12/06 05:58:06;;;;;;;35.00;12.20;;;2.20;99.90;;;;;;5074278;28;20036;-55
2023/12/06 06:00:31;;;;;;;42.07;13.80;;;2.20;99.90;;;;;;5073894;28;20032;-57
2023/12/06 06:02:58;;;;;;;37.60;13.27;;;2.20;99.90;;;;;;5073951;28;20037;-56
2023/12/06 06:05:24;;;;;;;42.63;13.60;;;2.20;99.90;;;;;;5073867;28;20048;-57
2023/12/06 06:07:50;;;;;;;35.30;12.70;;;2.20;99.90;;;;;;5073926;28;20092;-57
2023/12/06 06:10:15;;;;;;;41.93;14.30;;;2.30;99.90;;;;;;5073710;28;20159;-56
2023/12/06 06:12:41;;;;;;;41.47;15.10;;;2.30;99.90;;;;;;5073889;28;20024;-57
2023/12/06 06:15:08;;;;;;;40.27;13.63;;;2.30;99.90;;;;;;5073599;28;20063;-56
2023/12/06 06:17:34;;;;;;;38.00;13.80;;;2.30;99.90;;;;;;5073646;28;20054;-56
2023/12/06 06:20:00;;;;;;;40.40;12.33;;;2.40;99.90;;;;;;5073597;28;20071;-57
2023/12/06 06:22:26;;;;;;;39.90;14.43;;;2.40;99.90;;;;;;5073592;28;20040;-56
2023/12/06 06:24:52;;;;;;;43.67;12.93;;;2.30;99.90;;;;;;5073468;28;20037;-55
2023/12/06 06:27:18;;;;;;;43.77;15.13;;;2.40;99.90;;;;;;5073649;28;20042;-54
2023/12/06 06:29:44;;;;;;;41.47;13.83;;;2.40;99.90;;;;;;5073177;28;20062;-55
2023/12/06 06:32:10;;;;;;;37.47;13.67;;;2.40;99.90;;;;;;5073436;28;20097;-55
2023/12/06 06:34:36;;;;;;;40.13;16.17;;;2.40;99.90;;;;;;5073322;28;20102;-55
2023/12/06 06:37:02;;;;;;;39.17;14.10;;;2.40;99.90;;;;;;5072272;28;20481;-55
2023/12/06 06:39:28;;;;;;;36.80;13.53;;;2.50;99.90;;;;;;5073043;28;20404;-56
2023/12/06 06:41:54;;;;;;;35.70;13.20;;;2.40;99.90;;;;;;5073107;28;20032;-56
2023/12/06 06:44:20;;;;;;;39.27;13.97;;;2.40;99.90;;;;;;5073187;28;20028;-53
2023/12/06 06:46:45;;;;;;;37.20;13.80;;;2.50;99.90;;;;;;5073049;28;20124;-55
2023/12/06 06:49:11;;;;;;;33.13;13.40;;;2.50;99.90;;;;;;5073020;28;20028;-55
2023/12/06 06:51:37;;;;;;;37.07;14.10;;;2.50;99.90;;;;;;5072991;28;20044;-53
2023/12/06 06:54:06;;;;;;;43.30;13.90;;;2.50;99.90;;;;;;5071619;28;20079;-52
2023/12/06 06:56:32;;;;;;;;;;;2.50;99.90;;;;;;5073442;28;20373;-54
2023/12/06 06:58:58;;;;;;;35.57;12.90;;;2.50;99.90;;;;;;5072878;28;19908;-52
2023/12/06 07:01:23;;;;;;;38.83;14.87;;;2.50;99.90;;;;;;5072906;28;20045;-56
2023/12/06 07:03:50;;;;;;;40.80;14.07;;;2.60;99.90;;;;;;5072150;28;20028;-56
2023/12/06 07:06:15;;;;;;;37.07;13.97;;;2.60;99.90;;;;;;5072584;28;20119;-56
2023/12/06 07:08:41;;;;;;;40.07;13.70;;;2.60;99.90;;;;;;5072672;28;20112;-56
2023/12/06 07:11:07;;;;;;;38.63;14.67;;;2.50;99.90;;;;;;5071198;28;20032;-56
2023/12/06 07:13:34;;;;;;;40.07;15.20;;;2.60;99.90;;;;;;5072543;28;20032;-55
2023/12/06 07:16:00;;;;;;;38.30;14.83;;;2.50;99.90;;;;;;5072543;28;20032;-56
2023/12/06 07:18:27;;;;;;;42.97;15.90;;;2.60;99.90;;;;;;5072484;28;20078;-55
2023/12/06 07:20:52;;;;;;;39.70;14.10;;;2.60;99.90;;;;;;5072272;28;20378;-54
2023/12/06 07:23:18;;;;;;;36.97;14.43;;;2.60;99.90;;;;;;5072484;28;20054;-56
2023/12/06 07:25:47;;;;;;;38.77;14.30;;;2.60;99.90;;;;;;5072145;28;20035;-53
2023/12/06 07:28:13;;;;;;;40.75;15.05;;;2.70;99.90;;;;;;5072248;28;20434;-52
2023/12/06 07:30:40;;;;;;;37.73;13.93;;;2.60;99.90;;;;;;5072245;28;20119;-56
2023/12/06 07:33:07;;;;;;;40.73;14.53;;;2.60;99.90;;;;;;5070995;28;20032;-53
2023/12/06 07:35:33;;;;;;;41.53;14.43;;;2.60;99.90;;;;;;5072318;28;20085;-52
2023/12/06 07:37:59;;;;;;;41.00;14.23;;;2.60;99.90;;;;;;5070808;28;20036;-52
2023/12/06 07:40:24;;;;;;;35.17;13.30;;;2.60;99.90;;;;;;5070866;28;20036;-53
2023/12/06 07:42:51;;;;;;;40.10;13.73;;;2.60;99.90;;;;;;5072144;28;20033;-56
2023/12/06 07:45:17;;;;;;;35.97;13.90;;;2.70;99.90;;;;;;5072113;28;20051;-56
2023/12/06 07:47:42;;;;;;;35.20;14.33;;;2.70;99.90;;;;;;5072944;28;20036;-54
2023/12/06 07:50:09;;;;;;;39.37;14.17;;;2.70;99.90;;;;;;5071648;28;20039;-56
2023/12/06 07:52:36;;;;;;;38.80;13.80;;;2.70;99.90;;;;;;5072211;28;20028;-55
2023/12/06 07:55:06;;;;;;;33.83;13.27;;;2.70;99.90;;;;;;5071136;28;20054;-52
2023/12/06 07:57:32;;;;;;;33.30;13.15;;;2.60;99.90;;;;;;5072544;28;20032;-53
2023/12/06 07:59:58;;;;;;;39.30;14.43;;;2.70;99.90;;;;;;5072374;28;20068;-54
2023/12/06 08:02:25;;;;;;;33.57;13.13;;;2.80;99.90;;;;;;5072855;28;20032;-52
2023/12/06 08:04:50;;;;;;;36.47;14.10;;;2.80;99.90;;;;;;5072531;28;20420;-52
2023/12/06 08:07:16;;;;;;;36.23;13.63;;;2.80;99.90;;;;;;5073072;28;20066;-51
2023/12/06 08:09:42;;;;;;;33.27;13.63;;;2.80;99.90;;;;;;5073301;28;20032;-51
2023/12/06 08:12:07;;;;;;;37.90;13.80;;;2.90;99.90;;;;;;5073244;28;20082;-52
2023/12/06 08:14:34;;;;;;;34.33;14.50;;;2.90;99.90;;;;;;5074472;28;20477;-52
2023/12/06 08:17:00;;;;;;;28.37;12.17;;;2.90;99.90;;;;;;5077122;28;20169;-56
2023/12/06 08:19:25;;;;;;;30.27;12.70;;;2.90;99.90;;;;;;5076377;28;20491;-55
2023/12/06 08:21:51;;;;;;;30.50;12.37;;;3.00;99.90;;;;;;5075627;28;20029;-56
2023/12/06 08:24:17;;;;;;;29.97;13.50;;;3.00;99.90;;;;;;5075562;28;20036;-55
2023/12/06 08:26:42;;;;;;;27.17;12.27;;;3.00;99.90;;;;;;5075752;28;20044;-55
2023/12/06 08:29:09;;;;;;;32.80;12.47;;;3.00;99.90;;;;;;5075502;28;20037;-55
2023/12/06 08:31:36;;;;;;;32.60;12.23;;;3.00;99.90;;;;;;5075400;28;20039;-55
2023/12/06 08:34:02;;;;;;;31.63;13.20;;;3.10;99.90;;;;;;5075577;28;20024;-57
2023/12/06 08:36:27;;;;;;;28.07;11.83;;;3.00;99.90;;;;;;5075279;28;20032;-56
2023/12/06 08:38:53;;;;;;;29.63;12.30;;;3.00;99.90;;;;;;5075200;28;20044;-55
2023/12/06 08:41:21;;;;;;;26.53;11.83;;;3.00;99.90;;;;;;5075400;28;20053;-55
2023/12/06 08:43:47;;;;;;;26.63;11.30;;;3.10;99.90;;;;;;5074237;28;20043;-53
2023/12/06 08:46:12;;;;;;;29.53;12.10;;;3.10;99.90;;;;;;5075373;28;20044;-53
2023/12/06 08:48:38;;;;;;;28.87;11.40;;;3.20;99.90;;;;;;5075205;28;20039;-55
2023/12/06 08:51:04;;;;;;;26.60;11.73;;;3.10;99.90;;;;;;5074957;28;20041;-55
2023/12/06 08:53:29;;;;;;;27.33;11.57;;;3.20;99.90;;;;;;5075255;28;20064;-53
2023/12/06 08:55:56;;;;;;;25.60;11.60;;;3.20;99.90;;;;;;5075163;28;20025;-55
2023/12/06 08:58:23;;;;;;;30.67;11.43;;;3.20;99.90;;;;;;5075072;28;20029;-55
2023/12/06 09:00:48;;;;;;;28.67;11.77;;;3.20;99.90;;;;;;5075143;28;20039;-55
2023/12/06 09:03:14;;;;;;;27.07;11.77;;;3.20;99.90;;;;;;5075015;28;20021;-55
2023/12/06 09:05:40;;;;;;;28.60;12.07;;;3.20;99.90;;;;;;5074974;28;20120;-54
2023/12/06 09:08:06;;;;;;;31.57;12.27;;;3.30;99.90;;;;;;5075268;28;20064;-56
2023/12/06 09:10:32;;;;;;;31.20;12.33;;;3.30;99.90;;;;;;5074789;28;20117;-55
2023/12/06 09:12:57;;;;;;;29.13;11.93;;;3.30;99.90;;;;;;5074906;28;20504;-56
2023/12/06 09:15:23;;;;;;;29.53;13.10;;;3.30;99.90;;;;;;5074825;28;20443;-55
2023/12/06 09:17:49;;;;;;;26.83;11.43;;;3.30;99.90;;;;;;5074738;28;20523;-56
2023/12/06 09:20:17;;;;;;;28.67;11.90;;;3.30;99.90;;;;;;5074544;28;20082;-55
2023/12/06 09:22:43;;;;;;;30.17;13.23;;;3.40;99.90;;;;;;5074729;28;20032;-56
2023/12/06 09:25:08;;;;;;;28.60;12.57;;;3.50;99.90;;;;;;5074629;28;20059;-54
2023/12/06 09:27:34;;;;;;;28.33;11.30;;;3.50;99.90;;;;;;5073981;28;20470;-55
2023/12/06 09:29:59;;;;;;;27.43;12.30;;;3.60;99.90;;;;;;5074409;28;20029;-56
2023/12/06 09:32:25;;;;;;;29.83;12.00;;;3.60;99.90;;;;;;5074565;28;20060;-53
2023/12/06 09:34:52;;;;;;;29.03;13.03;;;3.60;99.90;;;;;;5074592;28;20035;-56
2023/12/06 09:37:17;;;;;;;24.40;11.67;;;3.60;99.90;;;;;;5074356;28;20112;-56
2023/12/06 09:39:43;;;;;;;29.10;11.70;;;3.60;99.90;;;;;;5074194;28;20553;-56
2023/12/06 09:42:10;;;;;;;26.03;11.23;;;3.50;99.90;;;;;;5074523;28;20051;-55
2023/12/06 09:44:41;;;;;;;29.80;13.33;;;3.50;99.90;;;;;;5074322;28;20051;-51
2023/12/06 09:47:07;;;;;;;31.03;12.07;;;3.60;99.90;;;;;;5074323;28;20469;-56
2023/12/06 09:49:33;;;;;;;29.17;12.80;;;3.70;99.90;;;;;;5072740;28;20036;-55
2023/12/06 09:52:21;;;;;;;29.13;12.57;;;3.70;99.90;;;;;;5074070;28;20025;-56
2023/12/06 09:54:51;;;;;;;29.07;13.23;;;3.70;99.90;;;;;;5074064;28;20040;-55
2023/12/06 09:57:17;;;;;;;31.67;13.13;;;3.70;99.90;;;;;;5073971;28;20028;-55
2023/12/06 09:59:43;;;;;;;33.40;13.47;;;3.70;99.90;;;;;;5073855;28;20043;-54
2023/12/06 10:02:09;;;;;;;34.60;13.50;;;3.80;99.90;;;;;;5073772;28;20495;-56
2023/12/06 10:04:35;;;;;;;28.27;12.00;;;3.90;99.90;;;;;;5073994;28;20115;-55
2023/12/06 10:07:01;;;;;;;31.83;13.20;;;3.90;99.90;;;;;;5073706;28;20024;-56
2023/12/06 10:09:27;;;;;;;30.90;13.17;;;3.90;99.90;;;;;;5073812;28;20059;-56
2023/12/06 10:12:03;;;;;;;30.50;12.93;;;4.00;99.90;;;;;;5074072;28;20086;-56
2023/12/06 10:14:29;;;;;;;26.73;12.33;;;4.00;99.90;;;;;;5073815;28;20032;-55
2023/12/06 10:16:54;;;;;;;29.60;12.60;;;4.10;99.90;;;;;;5072353;28;20182;-57
2023/12/06 10:19:22;;;;;;;26.63;11.53;;;4.10;99.90;;;;;;5073512;28;20033;-56
2023/12/06 10:21:49;;;;;;;32.10;12.93;;;4.10;99.90;;;;;;5073532;28;20473;-56
2023/12/06 10:24:15;;;;;;;32.23;12.77;;;4.10;99.90;;;;;;5073690;28;20461;-57
2023/12/06 10:26:40;;;;;;;25.73;11.93;;;4.10;99.90;;;;;;5073495;28;20293;-56
2023/12/06 10:29:06;;;;;;;26.97;12.77;;;4.10;99.90;;;;;;5073268;28;20028;-57
2023/12/06 10:31:38;;;;;;;31.30;12.43;;;4.10;99.90;;;;;;5073947;28;20632;-57
2023/12/06 10:34:06;;;;;;;29.40;11.87;;;4.10;99.90;;;;;;5073412;28;20111;-56
2023/12/06 10:36:32;;;;;;;27.30;11.67;;;4.20;99.90;;;;;;5073574;28;20033;-54
2023/12/06 10:38:59;;;;;;;25.13;11.60;;;4.20;99.90;;;;;;5071981;28;20051;-56
2023/12/06 10:41:26;;;;;;;27.37;11.57;;;4.20;99.90;;;;;;5073120;28;20047;-55
2023/12/06 10:43:55;;;;;;;24.27;12.00;;;4.20;99.90;;;;;;5073216;28;20432;-51
2023/12/06 10:46:21;;;;;;;25.60;11.45;;;4.20;99.90;;;;;;5072901;28;20119;-55
2023/12/06 10:48:48;;;;;;;24.60;11.43;;;4.30;99.90;;;;;;5073129;28;20040;-57
2023/12/06 10:51:16;;;;;;;23.10;11.40;;;4.30;99.90;;;;;;5072889;28;20036;-56
2023/12/06 10:53:43;;;;;;;25.33;10.60;;;4.40;99.90;;;;;;5072976;28;20112;-57
2023/12/06 10:56:10;;;;;;;23.83;11.20;;;4.40;99.90;;;;;;5072712;28;20603;-56
2023/12/06 10:58:37;;;;;;;23.73;10.77;;;4.40;99.90;;;;;;5072946;28;20028;-54
2023/12/06 11:01:03;;;;;;;28.73;11.13;;;4.40;99.90;;;;;;5072864;28;20035;-57
2023/12/06 11:03:29;;;;;;;27.93;10.97;;;4.40;99.90;;;;;;5071487;28;20497;-56
2023/12/06 11:05:59;;;;;;;25.47;10.27;;;4.40;99.90;;;;;;5072533;28;20035;-57
2023/12/06 11:08:30;;;;;;;22.67;10.03;;;4.50;99.90;;;;;;5072531;28;20037;-54
2023/12/06 11:11:22;;;;;;;22.90;9.53;;;4.50;99.90;;;;;;5072592;28;20028;-57
2023/12/06 11:14:22;;;;;;;20.20;9.97;;;4.50;99.90;;;;;;5072603;28;20396;-57
2023/12/06 11:17:06;;;;;;;21.43;10.17;;;4.60;99.90;;;;;;5072515;28;20035;-55
2023/12/06 11:19:34;;;;;;;18.37;9.40;;;4.50;99.90;;;;;;5072523;28;20044;-57
2023/12/06 11:22:02;;;;;;;20.50;8.73;;;4.50;99.90;;;;;;5072478;28;20052;-55
2023/12/06 11:24:28;;;;;;;22.85;10.20;;;4.60;99.90;;;;;;5072376;28;20093;-57
2023/12/06 11:26:55;;;;;;;22.87;10.17;;;4.70;99.90;;;;;;5071131;28;20412;-57
2023/12/06 11:29:21;;;;;;;19.17;8.70;;;4.60;99.90;;;;;;5072230;28;20036;-56
2023/12/06 11:31:55;;;;;;;24.70;9.53;;;4.60;99.90;;;;;;5071931;28;20037;-57
2023/12/06 11:34:32;;;;;;;21.47;9.37;;;4.60;99.90;;;;;;5072387;28;20043;-56
2023/12/06 11:37:03;;;;;;;22.63;9.63;;;4.50;99.90;;;;;;5072179;28;20025;-56
2023/12/06 11:39:29;;;;;;;20.83;9.63;;;4.50;99.90;;;;;;5072173;28;20404;-57
2023/12/06 11:41:55;;;;;;;19.77;9.77;;;4.60;99.90;;;;;;5072085;28;20378;-57
2023/12/06 11:44:21;;;;;;;21.00;9.93;;;4.60;99.90;;;;;;5072024;28;20040;-57
2023/12/06 11:46:49;;;;;;;18.13;8.90;;;4.70;99.90;;;;;;5072138;28;20101;-57
2023/12/06 11:49:15;;;;;;;23.20;9.77;;;4.70;99.90;;;;;;5071683;28;20067;-55
2023/12/06 11:51:41;;;;;;;21.20;9.83;;;4.80;99.90;;;;;;5072008;28;20093;-57
2023/12/06 11:54:06;;;;;;;18.73;9.73;;;4.80;99.90;;;;;;5072104;28;20095;-57
2023/12/06 11:56:32;;;;;;;25.50;10.47;;;4.80;99.90;;;;;;5071843;28;20420;-57
2023/12/06 11:58:58;;;;;;;22.37;9.90;;;4.90;99.90;;;;;;5071736;28;20111;-56
2023/12/06 12:01:24;;;;;;;19.43;9.43;;;4.90;99.90;;;;;;5072009;28;20400;-55
2023/12/06 12:03:51;;;;;;;21.20;9.50;;;5.00;99.90;;;;;;5071891;28;20036;-52
2023/12/06 12:06:17;;;;;;;18.97;10.40;;;5.10;99.90;;;;;;5071999;28;20588;-54
2023/12/06 12:08:43;;;;;;;19.13;9.23;;;5.20;99.90;;;;;;5071735;28;20024;-55
2023/12/06 12:11:10;;;;;;;20.57;9.70;;;5.30;99.90;;;;;;5071710;28;20040;-57
2023/12/06 12:13:37;;;;;;;18.53;8.87;;;5.30;99.90;;;;;;5072023;28;21094;-57
2023/12/06 12:16:04;;;;;;;17.63;9.77;;;5.30;99.90;;;;;;5071666;28;20796;-56
2023/12/06 12:18:30;;;;;;;21.17;9.67;;;5.30;99.90;;;;;;5071714;28;20053;-56
2023/12/06 12:20:58;;;;;;;21.70;10.03;;;5.30;99.90;;;;;;5071805;28;20028;-57
2023/12/06 12:23:28;;;;;;;18.23;9.63;;;5.40;99.90;;;;;;5071676;28;20490;-56
2023/12/06 12:25:54;;;;;;;19.13;9.40;;;5.70;99.90;;;;;;5071493;28;20041;-57
2023/12/06 12:28:21;;;;;;;18.87;9.07;;;6.50;99.90;;;;;;5071442;28;20063;-56
2023/12/06 12:30:51;;;;;;;17.70;7.90;;;7.30;99.90;;;;;;5071460;28;20040;-57
2023/12/06 12:33:18;;;;;;;18.67;8.90;;;7.80;99.90;;;;;;5071670;28;20473;-56